createdAt,value
2022-07-29T00:00:17.518Z,1.04
2022-07-29T00:01:19.053Z,1.04
2022-07-29T00:02:17.775Z,1.04
2022-07-29T00:03:17.947Z,1.04
2022-07-29T00:04:18.381Z,1.04
2022-07-29T00:05:18.184Z,1.04
2022-07-29T00:06:18.277Z,1.04
2022-07-29T00:07:18.381Z,1.04
2022-07-29T00:08:18.493Z,1.04
2022-07-29T00:09:18.585Z,1.04
2022-07-29T00:10:18.735Z,1.04
2022-07-29T00:11:18.789Z,1.04
2022-07-29T00:12:21.626Z,1.04
2022-07-29T00:13:18.994Z,1.04
2022-07-29T00:14:19.264Z,1.04
2022-07-29T00:15:19.254Z,1.04
2022-07-29T00:16:19.449Z,1.04
2022-07-29T00:17:19.501Z,1.04
2022-07-29T00:18:19.611Z,1.04
2022-07-29T00:19:19.709Z,1.04
2022-07-29T00:20:19.858Z,1.04
2022-07-29T00:21:19.963Z,1.04
2022-07-29T00:22:20.062Z,1.04
2022-07-29T00:23:20.164Z,1.04
2022-07-29T00:24:20.266Z,1.04
2022-07-29T00:25:20.367Z,1.04
2022-07-29T00:26:20.518Z,1.04
2022-07-29T00:27:20.673Z,1.04
2022-07-29T00:28:20.824Z,1.04
2022-07-29T00:29:33.849Z,1.04
2022-07-29T00:30:21.012Z,1.04
2022-07-29T00:31:21.224Z,1.04
2022-07-29T00:32:21.294Z,1.04
2022-07-29T00:33:21.354Z,1.04
2022-07-29T00:34:21.494Z,1.04
2022-07-29T00:35:21.657Z,1.04
2022-07-29T00:36:21.765Z,1.04
2022-07-29T00:37:21.870Z,1.04
2022-07-29T00:38:22.075Z,1.04
2022-07-29T00:39:22.115Z,1.04
2022-07-29T00:40:23.468Z,1.04
2022-07-29T00:41:22.425Z,1.04
2022-07-29T00:42:22.562Z,1.04
2022-07-29T00:43:22.722Z,1.04
2022-07-29T00:44:22.850Z,1.04
2022-07-29T00:45:22.999Z,1.04
2022-07-29T00:46:23.155Z,1.04
2022-07-29T00:47:23.235Z,1.04
2022-07-29T00:48:23.342Z,1.04
2022-07-29T00:49:23.535Z,1.04
2022-07-29T00:50:23.549Z,1.04
2022-07-29T00:51:23.666Z,1.04
2022-07-29T00:52:23.836Z,1.04
2022-07-29T00:53:23.922Z,1.04
2022-07-29T00:54:24.068Z,1.04
2022-07-29T00:55:24.256Z,1.04
2022-07-29T00:56:24.355Z,1.04
2022-07-29T00:57:24.560Z,1.04
2022-07-29T00:58:24.575Z,1.04
2022-07-29T00:59:24.726Z,1.04
2022-07-29T01:00:24.930Z,1.04
2022-07-29T01:01:25.089Z,1.04
2022-07-29T01:02:25.295Z,1.04
2022-07-29T01:03:25.325Z,1.04
2022-07-29T01:04:25.416Z,1.04
2022-07-29T01:05:25.540Z,1.04
2022-07-29T01:06:25.602Z,1.04
2022-07-29T01:07:25.695Z,1.04
2022-07-29T01:08:25.868Z,1.04
2022-07-29T01:09:34.406Z,1.04
2022-07-29T01:10:26.104Z,1.04
2022-07-29T01:11:26.205Z,1.04
2022-07-29T01:12:26.338Z,1.04
2022-07-29T01:13:26.408Z,1.04
2022-07-29T01:14:26.561Z,1.04
2022-07-29T01:15:26.663Z,1.04
2022-07-29T01:16:26.791Z,1.04
2022-07-29T01:17:26.877Z,1.04
2022-07-29T01:18:27.018Z,1.04
2022-07-29T01:19:27.119Z,1.04
2022-07-29T01:20:31.250Z,1.04
2022-07-29T01:21:27.373Z,1.04
2022-07-29T01:22:27.521Z,1.04
2022-07-29T01:23:27.627Z,1.04
2022-07-29T01:24:27.779Z,1.04
2022-07-29T01:25:28.325Z,1.04
2022-07-29T01:26:28.081Z,1.04
2022-07-29T01:27:28.184Z,1.04
2022-07-29T01:28:28.341Z,1.04
2022-07-29T01:29:29.774Z,1.04
2022-07-29T01:30:28.539Z,1.04
2022-07-29T01:31:28.719Z,1.04
2022-07-29T01:32:29.440Z,1.04
2022-07-29T01:33:28.997Z,1.04
2022-07-29T01:34:29.208Z,1.04
2022-07-29T01:35:29.301Z,1.04
2022-07-29T01:36:29.402Z,1.04
2022-07-29T01:37:29.556Z,1.04
2022-07-29T01:38:29.706Z,1.04
2022-07-29T01:39:29.807Z,1.04
2022-07-29T01:40:29.962Z,1.04
2022-07-29T01:41:30.112Z,1.04
2022-07-29T01:42:30.213Z,1.04
2022-07-29T01:43:30.367Z,1.04
2022-07-29T01:44:30.518Z,1.04
2022-07-29T01:45:30.670Z,1.04
2022-07-29T01:46:30.793Z,1.04
2022-07-29T01:47:30.872Z,1.04
2022-07-29T01:48:30.976Z,1.04
2022-07-29T01:49:31.124Z,1.04
2022-07-29T01:50:31.228Z,1.04
2022-07-29T01:51:31.332Z,1.04
2022-07-29T01:52:31.483Z,1.04
2022-07-29T01:53:34.804Z,1.04
2022-07-29T01:54:31.752Z,1.04
2022-07-29T01:55:31.892Z,1.04
2022-07-29T01:56:32.047Z,1.04
2022-07-29T01:57:32.143Z,1.04
2022-07-29T01:58:32.298Z,1.04
2022-07-29T01:59:32.397Z,1.04
2022-07-29T02:00:32.497Z,1.04
2022-07-29T02:01:32.662Z,1.04
2022-07-29T02:02:32.708Z,1.04
2022-07-29T02:03:32.866Z,1.04
2022-07-29T02:04:33.004Z,1.04
2022-07-29T02:05:33.157Z,1.04
2022-07-29T02:06:33.312Z,1.04
2022-07-29T02:07:33.460Z,1.04
2022-07-29T02:08:33.612Z,1.04
2022-07-29T02:09:33.764Z,1.04
2022-07-29T02:10:33.919Z,1.04
2022-07-29T02:11:34.026Z,1.04
2022-07-29T02:12:34.171Z,1.04
2022-07-29T02:13:34.276Z,1.04
2022-07-29T02:14:34.383Z,1.04
2022-07-29T02:15:34.526Z,1.04
2022-07-29T02:16:34.710Z,1.04
2022-07-29T02:17:34.783Z,1.04
2022-07-29T02:18:34.937Z,1.04
2022-07-29T02:19:35.032Z,1.04
2022-07-29T02:20:35.190Z,1.04
2022-07-29T02:21:35.339Z,1.04
2022-07-29T02:22:35.440Z,1.04
2022-07-29T02:23:44.289Z,1.04
2022-07-29T02:24:35.642Z,1.04
2022-07-29T02:25:37.384Z,1.04
2022-07-29T02:26:35.881Z,1.04
2022-07-29T02:27:35.997Z,1.04
2022-07-29T02:28:36.101Z,1.04
2022-07-29T02:29:36.204Z,1.04
2022-07-29T02:30:36.303Z,1.04
2022-07-29T02:31:36.508Z,1.04
2022-07-29T02:32:36.621Z,1.04
2022-07-29T02:33:36.764Z,1.04
2022-07-29T02:34:36.859Z,1.04
2022-07-29T02:35:36.969Z,1.04
2022-07-29T02:36:37.066Z,1.04
2022-07-29T02:37:37.182Z,1.04
2022-07-29T02:38:37.323Z,1.04
2022-07-29T02:39:37.423Z,1.04
2022-07-29T02:40:37.523Z,1.04
2022-07-29T02:41:37.681Z,1.04
2022-07-29T02:42:37.832Z,1.04
2022-07-29T02:43:37.930Z,1.04
2022-07-29T02:44:38.081Z,1.04
2022-07-29T02:45:38.236Z,1.04
2022-07-29T02:46:38.358Z,1.04
2022-07-29T02:47:41.677Z,1.04
2022-07-29T02:48:38.658Z,1.04
2022-07-29T02:49:38.739Z,2
2022-07-29T02:50:38.901Z,2
2022-07-29T02:51:41.253Z,2
2022-07-29T02:52:39.099Z,2
2022-07-29T02:53:39.200Z,2
2022-07-29T02:54:39.302Z,2
2022-07-29T02:55:39.450Z,3.04
2022-07-29T02:56:39.606Z,3.04
2022-07-29T02:57:54.166Z,3.04
2022-07-29T02:58:39.908Z,4
2022-07-29T02:59:40.017Z,4
2022-07-29T03:00:40.119Z,5.04
2022-07-29T03:01:40.326Z,5.04
2022-07-29T03:02:40.374Z,6
2022-07-29T03:03:40.469Z,7.04
2022-07-29T03:04:40.612Z,8
2022-07-29T03:05:40.722Z,9.04
2022-07-29T03:06:40.873Z,11.04
2022-07-29T03:07:40.976Z,12
2022-07-29T03:08:41.128Z,14
2022-07-29T03:09:41.278Z,16
2022-07-29T03:10:41.435Z,18
2022-07-29T03:11:42.522Z,20
2022-07-29T03:12:41.736Z,22
2022-07-29T03:13:41.842Z,24
2022-07-29T03:14:41.937Z,26
2022-07-29T03:15:42.108Z,29.04
2022-07-29T03:16:42.188Z,34
2022-07-29T03:17:42.293Z,41.04
2022-07-29T03:18:42.399Z,48
2022-07-29T03:19:42.500Z,53.04
2022-07-29T03:20:42.603Z,58
2022-07-29T03:21:42.710Z,70
2022-07-29T03:22:42.804Z,90
2022-07-29T03:23:42.908Z,105.04
2022-07-29T03:24:43.011Z,117.04
2022-07-29T03:25:43.162Z,115.04
2022-07-29T03:26:43.315Z,123.04
2022-07-29T03:27:43.414Z,133.04
2022-07-29T03:28:43.518Z,148
2022-07-29T03:29:43.702Z,168
2022-07-29T03:30:44.479Z,194.08
2022-07-29T03:31:43.872Z,227.04
2022-07-29T03:32:43.981Z,240
2022-07-29T03:33:44.132Z,237.12
2022-07-29T03:34:44.228Z,238.08
2022-07-29T03:35:44.378Z,240
2022-07-29T03:36:44.481Z,243.04
2022-07-29T03:37:44.634Z,243.04
2022-07-29T03:38:44.737Z,245.12
2022-07-29T03:39:44.840Z,255.04
2022-07-29T03:40:44.991Z,265.12
2022-07-29T03:41:45.105Z,271.04
2022-07-29T03:42:45.245Z,273.12
2022-07-29T03:43:49.015Z,272
2022-07-29T03:44:45.504Z,273.12
2022-07-29T03:45:45.648Z,279.04
2022-07-29T03:46:45.785Z,288
2022-07-29T03:47:50.534Z,300
2022-07-29T03:48:45.996Z,315.04
2022-07-29T03:49:46.078Z,330.24
2022-07-29T03:50:46.207Z,348.16
2022-07-29T03:51:46.311Z,367.04
2022-07-29T03:52:46.416Z,385.28
2022-07-29T03:53:46.570Z,405.12
2022-07-29T03:54:46.714Z,426.24
2022-07-29T03:55:46.819Z,451.2
2022-07-29T03:56:46.921Z,481.28
2022-07-29T03:57:47.074Z,518.08
2022-07-29T03:58:47.179Z,565.12
2022-07-29T03:59:47.280Z,619.2
2022-07-29T04:00:47.435Z,681.6
2022-07-29T04:01:47.681Z,751.36
2022-07-29T04:02:47.682Z,825.6
2022-07-29T04:03:47.867Z,902.4
2022-07-29T04:04:47.937Z,989.44
2022-07-29T04:05:48.043Z,1072
2022-07-29T04:06:48.425Z,1156.48
2022-07-29T04:07:48.239Z,1235.2
2022-07-29T04:08:48.342Z,1292.16
2022-07-29T04:09:48.496Z,1440
2022-07-29T04:10:48.596Z,1516.8
2022-07-29T04:11:56.939Z,1574.4
2022-07-29T04:12:48.861Z,1628.16
2022-07-29T04:13:49.010Z,1675.52
2022-07-29T04:14:49.107Z,1719.04
2022-07-29T04:15:49.216Z,1785.6
2022-07-29T04:16:49.358Z,1835.52
2022-07-29T04:17:49.508Z,1877.76
2022-07-29T04:18:49.662Z,1945.6
2022-07-29T04:19:49.812Z,2033.92
2022-07-29T04:20:49.921Z,2135.04
2022-07-29T04:21:50.024Z,2255.36
2022-07-29T04:22:50.173Z,2432
2022-07-29T04:23:53.241Z,2588.16
2022-07-29T04:24:50.374Z,2746.88
2022-07-29T04:25:50.473Z,2905.6
2022-07-29T04:26:50.577Z,3051.52
2022-07-29T04:27:50.711Z,3171.84
2022-07-29T04:28:50.783Z,3307.52
2022-07-29T04:29:56.452Z,3448.32
2022-07-29T04:30:51.056Z,3591.68
2022-07-29T04:31:51.141Z,3717.12
2022-07-29T04:32:51.242Z,3837.44
2022-07-29T04:33:51.341Z,3955.2
2022-07-29T04:34:51.446Z,4060.16
2022-07-29T04:35:52.605Z,4167.68
2022-07-29T04:36:51.748Z,4267.52
2022-07-29T04:37:51.901Z,4367.36
2022-07-29T04:38:52.001Z,4464.64
2022-07-29T04:39:52.154Z,4544
2022-07-29T04:40:52.251Z,4620.8
2022-07-29T04:41:54.834Z,4707.84
2022-07-29T04:42:52.560Z,4789.76
2022-07-29T04:43:52.659Z,4864
2022-07-29T04:44:52.815Z,4925.44
2022-07-29T04:45:53.002Z,4956.16
2022-07-29T04:46:53.069Z,4984.32
2022-07-29T04:47:53.166Z,4966.4
2022-07-29T04:48:53.321Z,4968.96
2022-07-29T04:49:53.375Z,4974.08
2022-07-29T04:50:53.522Z,5027.84
2022-07-29T04:51:53.675Z,5125.12
2022-07-29T04:52:53.780Z,5376
2022-07-29T04:53:53.886Z,5739.52
2022-07-29T04:54:54.039Z,6128.64
2022-07-29T04:55:54.193Z,6650.88
2022-07-29T04:56:54.337Z,6666.24
2022-07-29T04:57:54.491Z,7424
2022-07-29T04:58:54.640Z,8104.96
2022-07-29T04:59:54.795Z,8688.64
2022-07-29T05:00:54.895Z,9169.92
2022-07-29T05:01:55.140Z,9390.08
2022-07-29T05:02:55.332Z,9456.64
2022-07-29T05:03:59.946Z,9344
2022-07-29T05:04:55.406Z,8314.88
2022-07-29T05:05:55.554Z,6138.88
2022-07-29T05:06:55.655Z,6092.8
2022-07-29T05:07:55.755Z,6174.72
2022-07-29T05:08:55.907Z,6287.36
2022-07-29T05:09:56.021Z,6384.64
2022-07-29T05:10:56.110Z,6487.04
2022-07-29T05:11:56.266Z,6568.96
2022-07-29T05:12:56.377Z,6604.8
2022-07-29T05:13:56.477Z,6625.28
2022-07-29T05:14:56.575Z,6645.76
2022-07-29T05:15:56.759Z,6650.88
2022-07-29T05:16:56.874Z,6650.88
2022-07-29T05:17:56.979Z,6656
2022-07-29T05:18:57.077Z,6650.88
2022-07-29T05:19:57.182Z,6656
2022-07-29T05:20:57.284Z,6630.4
2022-07-29T05:21:57.391Z,6640.64
2022-07-29T05:22:57.536Z,6671.36
2022-07-29T05:23:57.643Z,6686.72
2022-07-29T05:24:57.793Z,6712.32
2022-07-29T05:25:57.893Z,6722.56
2022-07-29T05:26:57.999Z,6743.04
2022-07-29T05:27:58.122Z,6748.16
2022-07-29T05:28:58.250Z,6748.16
2022-07-29T05:29:58.349Z,6748.16
2022-07-29T05:30:58.547Z,6727.68
2022-07-29T05:31:58.652Z,6707.2
2022-07-29T05:32:58.756Z,6676.48
2022-07-29T05:33:58.860Z,6630.4
2022-07-29T05:34:58.959Z,6584.32
2022-07-29T05:36:00.695Z,6538.24
2022-07-29T05:36:59.213Z,6507.52
2022-07-29T05:37:59.318Z,6502.4
2022-07-29T05:38:59.416Z,6538.24
2022-07-29T05:39:59.565Z,6594.56
2022-07-29T05:40:59.756Z,6676.48
2022-07-29T05:41:59.829Z,6784
2022-07-29T05:42:59.931Z,6855.68
2022-07-29T05:44:00.035Z,7004.16
2022-07-29T05:45:00.183Z,7183.36
2022-07-29T05:46:00.414Z,7352.32
2022-07-29T05:47:00.382Z,7526.4
2022-07-29T05:48:00.539Z,7644.16
2022-07-29T05:49:00.718Z,7756.8
2022-07-29T05:50:00.788Z,7864.32
2022-07-29T05:51:00.888Z,7971.84
2022-07-29T05:52:00.987Z,8079.36
2022-07-29T05:53:01.143Z,8202.24
2022-07-29T05:54:01.298Z,8299.52
2022-07-29T05:55:01.434Z,8427.52
2022-07-29T05:56:01.523Z,8555.52
2022-07-29T05:57:01.601Z,8714.24
2022-07-29T05:58:01.759Z,8883.2
2022-07-29T05:59:01.908Z,9052.16
2022-07-29T06:00:02.065Z,9231.359
2022-07-29T06:01:02.217Z,9425.92
2022-07-29T06:02:02.296Z,9620.479
2022-07-29T06:03:02.369Z,9758.72
2022-07-29T06:04:02.598Z,9902.08
2022-07-29T06:05:02.671Z,10030.08
2022-07-29T06:06:02.771Z,10168.319
2022-07-29T06:07:02.948Z,10316.8
2022-07-29T06:08:03.000Z,10444.8
2022-07-29T06:09:09.191Z,10557.439
2022-07-29T06:10:03.226Z,10618.88
2022-07-29T06:11:03.376Z,10588.16
2022-07-29T06:12:03.483Z,10588.16
2022-07-29T06:13:03.585Z,10567.68
2022-07-29T06:14:03.683Z,10536.96
2022-07-29T06:15:03.980Z,10480.64
2022-07-29T06:16:04.165Z,10393.6
2022-07-29T06:17:04.197Z,10265.6
2022-07-29T06:18:04.290Z,10147.84
2022-07-29T06:19:04.443Z,10004.479
2022-07-29T06:20:04.506Z,9907.2
2022-07-29T06:21:04.596Z,9881.6
2022-07-29T06:22:04.702Z,9866.24
2022-07-29T06:23:04.798Z,9907.2
2022-07-29T06:24:04.904Z,10009.6
2022-07-29T06:25:05.010Z,10147.84
2022-07-29T06:26:05.106Z,10347.52
2022-07-29T06:27:05.224Z,10496
2022-07-29T06:28:05.310Z,10629.12
2022-07-29T06:29:05.461Z,10711.04
2022-07-29T06:30:05.618Z,10741.76
2022-07-29T06:31:05.889Z,10803.2
2022-07-29T06:32:05.869Z,10844.16
2022-07-29T06:33:05.972Z,10895.359
2022-07-29T06:34:06.119Z,10926.08
2022-07-29T06:35:32.204Z,10956.8
2022-07-29T06:36:06.379Z,10905.6
2022-07-29T06:37:06.475Z,10885.12
2022-07-29T06:38:09.545Z,10854.399
2022-07-29T06:39:06.782Z,10844.16
2022-07-29T06:40:06.936Z,10844.16
2022-07-29T06:41:07.188Z,10844.16
2022-07-29T06:42:07.241Z,10823.68
2022-07-29T06:43:07.392Z,10782.72
2022-07-29T06:44:07.490Z,10639.359
2022-07-29T06:45:09.350Z,10485.76
2022-07-29T06:46:07.773Z,10306.56
2022-07-29T06:47:07.893Z,10091.52
2022-07-29T06:48:08.047Z,9876.479
2022-07-29T06:49:08.171Z,9697.279
2022-07-29T06:50:08.306Z,9569.28
2022-07-29T06:51:08.453Z,9528.319
2022-07-29T06:52:08.621Z,9538.56
2022-07-29T06:53:08.706Z,9681.92
2022-07-29T06:54:08.810Z,9861.12
2022-07-29T06:55:08.973Z,10214.399
2022-07-29T06:56:09.062Z,10567.68
2022-07-29T06:57:09.167Z,10813.439
2022-07-29T06:58:09.303Z,11120.64
2022-07-29T06:59:09.412Z,11376.64
2022-07-29T07:00:09.474Z,11612.16
2022-07-29T07:01:09.690Z,11776
2022-07-29T07:02:09.789Z,11888.64
2022-07-29T07:03:09.829Z,11960.319
2022-07-29T07:04:10.067Z,12011.52
2022-07-29T07:05:10.078Z,12062.72
2022-07-29T07:06:14.695Z,12165.12
2022-07-29T07:07:10.333Z,12267.52
2022-07-29T07:08:10.438Z,12441.6
2022-07-29T07:09:10.585Z,12595.2
2022-07-29T07:10:10.693Z,12769.279
2022-07-29T07:11:10.845Z,12953.6
2022-07-29T07:12:10.953Z,13967.359
2022-07-29T07:13:11.048Z,14376.96
2022-07-29T07:14:11.195Z,14796.8
2022-07-29T07:15:11.347Z,15175.68
2022-07-29T07:16:11.562Z,15595.52
2022-07-29T07:17:11.655Z,15831.04
2022-07-29T07:18:11.754Z,16035.84
2022-07-29T07:19:11.855Z,16025.6
2022-07-29T07:20:12.289Z,15943.68
2022-07-29T07:21:12.063Z,15892.479
2022-07-29T07:22:12.216Z,15912.96
2022-07-29T07:23:12.364Z,15974.399
2022-07-29T07:24:12.665Z,16035.84
2022-07-29T07:25:12.568Z,16158.72
2022-07-29T07:26:12.719Z,16568.32
2022-07-29T07:27:12.871Z,16220.159
2022-07-29T07:28:12.978Z,16168.96
2022-07-29T07:29:13.078Z,16107.52
2022-07-29T07:30:13.177Z,16056.319
2022-07-29T07:31:13.284Z,15902.72
2022-07-29T07:32:13.498Z,15677.439
2022-07-29T07:33:13.537Z,15298.56
2022-07-29T07:34:14.005Z,14581.76
2022-07-29T07:35:13.792Z,14120.96
2022-07-29T07:36:13.892Z,13742.08
2022-07-29T07:37:14.021Z,12902.399
2022-07-29T07:38:14.099Z,12625.92
2022-07-29T07:39:14.199Z,12636.16
2022-07-29T07:40:18.504Z,12902.399
2022-07-29T07:41:14.457Z,13486.08
2022-07-29T07:42:14.597Z,14080
2022-07-29T07:43:14.753Z,14755.84
2022-07-29T07:44:16.176Z,15544.319
2022-07-29T07:45:16.332Z,16435.2
2022-07-29T07:46:15.151Z,17346.56
2022-07-29T07:47:15.209Z,18298.88
2022-07-29T07:48:15.313Z,19312.64
2022-07-29T07:49:15.473Z,20367.36
2022-07-29T07:50:18.590Z,21852.16
2022-07-29T07:51:15.664Z,23408.64
2022-07-29T07:52:15.769Z,23060.48
2022-07-29T07:53:15.870Z,22548.48
2022-07-29T07:54:16.373Z,22548.48
2022-07-29T07:55:16.126Z,22466.56
2022-07-29T07:56:16.287Z,22302.72
2022-07-29T07:57:16.383Z,22036.48
2022-07-29T07:58:16.481Z,21893.12
2022-07-29T07:59:16.584Z,21647.36
2022-07-29T08:00:16.685Z,21667.84
2022-07-29T08:01:16.828Z,21483.52
2022-07-29T08:02:17.020Z,21811.2
2022-07-29T08:03:17.457Z,21667.84
2022-07-29T08:04:18.289Z,21626.88
2022-07-29T08:05:17.202Z,21749.76
2022-07-29T08:06:17.353Z,22056.96
2022-07-29T08:07:17.525Z,22405.12
2022-07-29T08:08:17.652Z,22589.44
2022-07-29T08:09:28.558Z,22773.76
2022-07-29T08:10:17.904Z,22794.24
2022-07-29T08:11:18.054Z,22773.76
2022-07-29T08:12:18.191Z,22835.2
2022-07-29T08:13:18.310Z,22835.2
2022-07-29T08:14:18.762Z,23388.16
2022-07-29T08:15:18.512Z,23265.28
2022-07-29T08:16:18.639Z,22446.08
2022-07-29T08:17:18.720Z,21913.6
2022-07-29T08:18:18.818Z,21852.16
2022-07-29T08:19:18.929Z,21422.08
2022-07-29T08:20:19.074Z,20654.08
2022-07-29T08:21:19.232Z,19333.12
2022-07-29T08:22:19.334Z,17817.6
2022-07-29T08:23:19.429Z,16537.6
2022-07-29T08:24:19.529Z,15472.64
2022-07-29T08:25:19.681Z,14684.16
2022-07-29T08:26:19.784Z,14028.8
2022-07-29T08:27:41.100Z,13731.84
2022-07-29T08:28:20.049Z,13301.76
2022-07-29T08:29:20.281Z,12994.56
2022-07-29T08:30:20.272Z,13096.96
2022-07-29T08:31:20.410Z,15278.08
2022-07-29T08:32:37.155Z,17192.96
2022-07-29T08:33:20.705Z,21975.04
2022-07-29T08:34:27.037Z,21811.2
2022-07-29T08:35:20.955Z,22876.16
2022-07-29T08:36:21.108Z,22732.8
2022-07-29T08:37:21.203Z,23613.44
2022-07-29T08:38:21.333Z,23859.2
2022-07-29T08:39:21.416Z,15697.92
2022-07-29T08:40:21.558Z,15697.92
2022-07-29T08:41:21.672Z,11089.92
2022-07-29T08:42:21.767Z,10193.92
2022-07-29T08:43:22.166Z,11120.64
2022-07-29T08:44:22.356Z,11182.08
2022-07-29T08:45:22.078Z,13486.08
2022-07-29T08:46:22.189Z,25128.96
2022-07-29T08:47:22.275Z,25763.84
2022-07-29T08:48:22.387Z,26050.56
2022-07-29T08:49:22.528Z,26071.04
2022-07-29T08:50:22.616Z,25456.64
2022-07-29T08:51:22.707Z,27566.08
2022-07-29T08:52:22.838Z,28057.6
2022-07-29T08:53:22.936Z,27770.88
2022-07-29T08:54:23.040Z,28815.36
2022-07-29T08:55:23.145Z,29286.4
2022-07-29T08:56:23.243Z,29777.92
2022-07-29T08:57:23.346Z,30679.04
2022-07-29T08:58:24.567Z,32256
2022-07-29T08:59:23.547Z,21544.96
2022-07-29T09:00:23.652Z,21934.08
2022-07-29T09:01:23.784Z,33505.28
2022-07-29T09:02:23.908Z,20060.16
2022-07-29T09:03:24.073Z,21975.04
2022-07-29T09:04:24.141Z,36741.12
2022-07-29T09:05:24.212Z,44154.88
2022-07-29T09:06:24.322Z,35041.28
2022-07-29T09:07:24.420Z,46612.48
2022-07-29T09:08:24.566Z,48947.2
2022-07-29T09:09:24.719Z,29859.84
2022-07-29T09:10:24.873Z,43909.12
2022-07-29T09:11:25.031Z,30289.92
2022-07-29T09:12:28.957Z,34570.24
2022-07-29T09:13:25.279Z,37109.76
2022-07-29T09:14:25.432Z,46407.68
2022-07-29T09:15:25.529Z,44482.56
2022-07-29T09:16:44.030Z,42516.48
2022-07-29T09:17:25.832Z,32768
2022-07-29T09:18:30.397Z,45547.52
2022-07-29T09:19:26.027Z,44892.16
2022-07-29T09:20:26.140Z,44400.64
2022-07-29T09:21:26.254Z,42762.24
2022-07-29T09:22:26.344Z,41615.36
2022-07-29T09:23:26.494Z,41574.4
2022-07-29T09:24:26.603Z,41615.36
2022-07-29T09:25:26.757Z,42762.24
2022-07-29T09:26:26.861Z,42311.68
2022-07-29T09:27:26.966Z,43622.4
2022-07-29T09:28:27.061Z,44769.28
2022-07-29T09:29:27.167Z,44564.48
2022-07-29T09:30:31.368Z,44810.24
2022-07-29T09:31:27.452Z,46571.52
2022-07-29T09:32:27.566Z,46940.16
2022-07-29T09:33:27.663Z,45670.4
2022-07-29T09:34:27.777Z,45629.44
2022-07-29T09:35:27.919Z,47718.4
2022-07-29T09:36:28.075Z,48742.4
2022-07-29T09:37:28.220Z,48332.8
2022-07-29T09:38:28.326Z,49971.2
2022-07-29T09:39:28.472Z,50298.88
2022-07-29T09:40:28.576Z,48742.4
2022-07-29T09:41:28.679Z,47718.4
2022-07-29T09:42:28.839Z,51036.16
2022-07-29T09:43:28.988Z,53084.16
2022-07-29T09:44:29.086Z,53411.84
2022-07-29T09:45:29.190Z,53125.12
2022-07-29T09:46:29.380Z,53166.08
2022-07-29T09:47:29.490Z,53043.2
2022-07-29T09:48:29.643Z,52920.32
2022-07-29T09:49:29.922Z,53411.84
2022-07-29T09:50:29.900Z,53288.96
2022-07-29T09:51:29.995Z,53616.64
2022-07-29T09:52:30.095Z,53657.6
2022-07-29T09:53:30.254Z,53903.36
2022-07-29T09:54:30.418Z,54149.12
2022-07-29T09:55:30.579Z,54435.84
2022-07-29T09:56:30.658Z,54845.44
2022-07-29T09:57:31.394Z,55296
2022-07-29T09:58:30.918Z,55787.52
2022-07-29T09:59:31.064Z,56156.16
2022-07-29T10:00:31.218Z,56442.88
2022-07-29T10:01:31.318Z,56606.72
2022-07-29T10:02:31.468Z,56729.6
2022-07-29T10:03:31.822Z,57180.16
2022-07-29T10:04:31.726Z,57589.76
2022-07-29T10:05:36.004Z,56975.36
2022-07-29T10:06:31.928Z,46776.32
2022-07-29T10:07:32.025Z,58204.16
2022-07-29T10:08:32.182Z,55582.72
2022-07-29T10:09:32.283Z,60252.16
2022-07-29T10:10:32.384Z,60252.16
2022-07-29T10:11:35.427Z,61399.04
2022-07-29T10:12:32.639Z,61890.56
2022-07-29T10:13:32.739Z,62382.08
2022-07-29T10:14:32.844Z,62218.24
2022-07-29T10:15:32.961Z,62914.56
2022-07-29T10:16:33.175Z,63119.36
2022-07-29T10:17:33.216Z,63856.64
2022-07-29T10:18:33.303Z,64471.04
2022-07-29T10:19:33.455Z,65249.28
2022-07-29T10:20:33.553Z,65904.64
2022-07-29T10:21:35.126Z,66600.96
2022-07-29T10:22:52.235Z,67174.4
2022-07-29T10:23:46.697Z,67706.88
2022-07-29T10:24:34.069Z,69754.88
2022-07-29T10:25:34.164Z,53411.84
2022-07-29T10:26:34.266Z,69099.52
2022-07-29T10:27:34.368Z,69345.28
2022-07-29T10:28:34.559Z,69304.32
2022-07-29T10:29:34.627Z,69140.48
2022-07-29T10:30:34.778Z,69591.04
2022-07-29T10:31:34.920Z,33607.68
2022-07-29T10:32:34.978Z,66150.4
2022-07-29T10:33:35.081Z,62873.6
2022-07-29T10:34:35.231Z,75120.64
2022-07-29T10:35:35.335Z,76021.76
2022-07-29T10:36:35.441Z,29020.16
2022-07-29T10:37:36.159Z,77168.64
2022-07-29T10:38:35.639Z,79544.32
2022-07-29T10:39:42.012Z,80773.12
2022-07-29T10:40:35.945Z,80977.92
2022-07-29T10:41:36.255Z,80896
2022-07-29T10:42:36.243Z,82288.64
2022-07-29T10:43:36.350Z,81633.28
2022-07-29T10:44:36.453Z,70369.28
2022-07-29T10:45:36.553Z,70901.76
2022-07-29T10:46:36.781Z,48168.96
2022-07-29T10:47:36.820Z,83763.2
2022-07-29T10:48:36.995Z,87162.88
2022-07-29T10:49:37.112Z,88719.36
2022-07-29T10:50:37.127Z,88555.52
2022-07-29T10:51:37.262Z,87408.64
2022-07-29T10:52:37.416Z,90685.44
2022-07-29T10:53:37.564Z,93552.64
2022-07-29T10:54:37.670Z,81960.96
2022-07-29T10:55:37.865Z,64634.88
2022-07-29T10:56:37.930Z,59228.16
2022-07-29T10:57:52.938Z,65003.52
2022-07-29T10:58:38.185Z,58490.88
2022-07-29T10:59:38.281Z,52183.04
2022-07-29T11:00:38.471Z,54312.96
2022-07-29T11:01:39.099Z,38707.2
2022-07-29T11:02:41.238Z,33976.32
2022-07-29T11:03:38.832Z,32440.32
2022-07-29T11:04:38.942Z,37314.56
2022-07-29T11:05:40.137Z,48414.72
2022-07-29T11:06:39.197Z,34897.92
2022-07-29T11:07:41.626Z,39362.56
2022-07-29T11:12:40.777Z,39362.56
2022-07-29T11:18:39.688Z,32870.4
2022-07-29T11:18:40.766Z,50216.96
2022-07-29T11:19:42.404Z,30269.44
2022-07-29T11:20:41.072Z,32194.56
2022-07-29T11:21:49.079Z,41615.36
2022-07-29T11:22:43.095Z,93470.72
2022-07-29T11:23:42.767Z,45998.08
2022-07-29T11:24:49.420Z,51445.76
2022-07-29T11:25:42.603Z,91914.23
2022-07-29T11:26:41.833Z,88965.12
2022-07-29T11:27:41.988Z,70574.08
2022-07-29T11:28:42.083Z,55255.04
2022-07-29T11:29:43.034Z,41738.24
2022-07-29T11:30:42.343Z,29204.48
2022-07-29T11:31:42.498Z,39936
2022-07-29T11:32:44.710Z,29491.2
2022-07-29T11:37:45.764Z,29491.2
2022-07-29T11:38:43.455Z,37642.24
2022-07-29T11:39:43.558Z,36106.24
2022-07-29T11:40:43.682Z,35082.24
2022-07-29T11:41:43.768Z,33341.44
2022-07-29T11:42:44.394Z,32317.44
2022-07-29T11:47:45.025Z,32317.44
2022-07-29T11:48:44.613Z,70000.64
2022-07-29T11:49:44.671Z,65044.48
2022-07-29T11:50:44.844Z,70656
2022-07-29T11:51:48.388Z,67788.8
2022-07-29T11:52:49.732Z,43212.8
2022-07-29T11:53:45.181Z,38113.28
2022-07-29T11:54:57.101Z,36085.76
2022-07-29T11:55:50.706Z,36229.12
2022-07-29T11:56:45.542Z,40673.28
2022-07-29T11:57:45.748Z,39772.16
2022-07-29T11:58:45.795Z,39034.88
2022-07-29T11:59:45.944Z,43008
2022-07-29T12:00:46.081Z,38338.56
2022-07-29T12:01:46.181Z,34181.12
2022-07-29T12:02:48.415Z,33239.04
2022-07-29T12:03:46.442Z,37376
2022-07-29T12:04:46.535Z,46776.32
2022-07-29T12:05:48.026Z,56238.08
2022-07-29T12:06:46.712Z,43048.96
2022-07-29T12:07:47.219Z,46161.92
2022-07-29T12:08:47.462Z,63037.44
2022-07-29T12:09:47.111Z,68280.32
2022-07-29T12:10:47.213Z,56483.84
2022-07-29T12:11:47.601Z,51650.56
2022-07-29T12:12:47.472Z,57753.6
2022-07-29T12:13:47.569Z,37294.08
2022-07-29T12:14:47.704Z,38543.36
2022-07-29T12:15:47.886Z,39731.2
2022-07-29T12:16:48.015Z,41656.32
2022-07-29T12:17:48.103Z,48906.24
2022-07-29T12:18:48.184Z,86261.76
2022-07-29T12:19:48.329Z,57507.84
2022-07-29T12:20:48.457Z,72048.64
2022-07-29T12:21:50.993Z,81059.84
2022-07-29T12:22:48.744Z,74465.28
2022-07-29T12:23:48.847Z,64266.24
2022-07-29T12:24:48.946Z,63037.44
2022-07-29T12:25:49.775Z,49684.48
2022-07-29T12:26:49.206Z,32686.08
2022-07-29T12:27:49.382Z,46653.44
2022-07-29T12:28:49.448Z,48046.08
2022-07-29T12:29:49.553Z,50544.64
2022-07-29T12:30:49.711Z,64512
2022-07-29T12:31:49.903Z,74711.04
2022-07-29T12:32:49.954Z,65208.32
2022-07-29T12:33:50.059Z,99205.12
2022-07-29T12:34:50.159Z,106250.23
2022-07-29T12:36:03.383Z,111411.2
2022-07-29T12:36:50.373Z,113213.44
2022-07-29T12:37:50.473Z,110919.68